sensor_id;sensor_type;location;lat;lon;timestamp;pressure;altitude;pressure_sealevel;temperature;humidity
37860;BME280;23698;52.014;5.190;2023-03-26T00:01:27;100527.91;;;8.55;100.00
37860;BME280;23698;52.014;5.190;2023-03-26T00:04:14;100530.63;;;8.55;100.00
37860;BME280;23698;52.014;5.190;2023-03-26T00:07:07;100538.81;;;8.47;100.00
37860;BME280;23698;52.014;5.190;2023-03-26T00:09:54;100539.38;;;8.42;100.00
37860;BME280;23698;52.014;5.190;2023-03-26T00:12:42;100542.53;;;8.61;100.00
37860;BME280;23698;52.014;5.190;2023-03-26T00:15:28;100534.44;;;8.76;100.00
37860;BME280;23698;52.014;5.190;2023-03-26T00:18:15;100526.69;;;8.73;100.00
37860;BME280;23698;52.014;5.190;2023-03-26T00:21:05;100523.22;;;8.79;100.00
37860;BME280;23698;52.014;5.190;2023-03-26T00:23:53;100517.03;;;8.63;100.00
37860;BME280;23698;52.014;5.190;2023-03-26T00:26:40;100511.13;;;8.75;100.00
37860;BME280;23698;52.014;5.190;2023-03-26T00:29:26;100504.59;;;8.84;100.00
37860;BME280;23698;52.014;5.190;2023-03-26T00:32:12;100501.50;;;8.87;100.00
37860;BME280;23698;52.014;5.190;2023-03-26T00:34:59;100496.59;;;8.76;100.00
37860;BME280;23698;52.014;5.190;2023-03-26T00:37:46;100494.25;;;8.73;100.00
37860;BME280;23698;52.014;5.190;2023-03-26T00:40:37;100482.63;;;8.72;100.00
37860;BME280;23698;52.014;5.190;2023-03-26T00:43:28;100488.31;;;8.77;100.00
37860;BME280;23698;52.014;5.190;2023-03-26T00:46:17;100487.63;;;8.90;100.00
37860;BME280;23698;52.014;5.190;2023-03-26T00:49:03;100486.84;;;8.60;100.00
37860;BME280;23698;52.014;5.190;2023-03-26T00:51:55;100492.03;;;8.61;100.00
37860;BME280;23698;52.014;5.190;2023-03-26T00:54:42;100498.66;;;8.74;100.00
37860;BME280;23698;52.014;5.190;2023-03-26T00:57:29;100495.41;;;8.63;100.00
37860;BME280;23698;52.014;5.190;2023-03-26T01:00:27;100496.41;;;8.62;100.00
37860;BME280;23698;52.014;5.190;2023-03-26T01:03:16;100490.81;;;8.64;100.00
37860;BME280;23698;52.014;5.190;2023-03-26T01:06:16;100487.66;;;8.60;100.00
37860;BME280;23698;52.014;5.190;2023-03-26T01:09:12;100481.41;;;8.75;100.00
37860;BME280;23698;52.014;5.190;2023-03-26T01:12:00;100474.72;;;8.71;100.00
37860;BME280;23698;52.014;5.190;2023-03-26T01:14:50;100480.75;;;8.73;100.00
37860;BME280;23698;52.014;5.190;2023-03-26T01:17:37;100477.88;;;8.74;100.00
37860;BME280;23698;52.014;5.190;2023-03-26T01:20:24;100482.31;;;8.82;100.00
37860;BME280;23698;52.014;5.190;2023-03-26T01:23:30;100478.41;;;8.84;100.00
37860;BME280;23698;52.014;5.190;2023-03-26T01:26:37;100465.53;;;8.86;100.00
37860;BME280;23698;52.014;5.190;2023-03-26T01:29:30;100470.56;;;8.90;100.00
37860;BME280;23698;52.014;5.190;2023-03-26T01:32:23;100462.97;;;9.00;100.00
37860;BME280;23698;52.014;5.190;2023-03-26T01:35:23;100457.44;;;9.08;100.00
37860;BME280;23698;52.014;5.190;2023-03-26T01:38:22;100453.13;;;8.92;100.00
37860;BME280;23698;52.014;5.190;2023-03-26T01:41:17;100450.16;;;8.87;100.00
37860;BME280;23698;52.014;5.190;2023-03-26T01:44:10;100441.78;;;8.82;100.00
37860;BME280;23698;52.014;5.190;2023-03-26T01:47:00;100438.44;;;9.01;100.00
37860;BME280;23698;52.014;5.190;2023-03-26T01:49:46;100435.47;;;8.96;100.00
37860;BME280;23698;52.014;5.190;2023-03-26T01:52:33;100440.94;;;8.81;100.00
37860;BME280;23698;52.014;5.190;2023-03-26T01:55:21;100431.50;;;8.92;100.00
37860;BME280;23698;52.014;5.190;2023-03-26T01:58:18;100429.31;;;9.02;100.00
37860;BME280;23698;52.014;5.190;2023-03-26T02:01:18;100421.66;;;8.84;100.00
37860;BME280;23698;52.014;5.190;2023-03-26T02:04:19;100421.31;;;8.94;100.00
37860;BME280;23698;52.014;5.190;2023-03-26T02:07:12;100408.06;;;8.78;100.00
37860;BME280;23698;52.014;5.190;2023-03-26T02:10:06;100416.06;;;8.86;100.00
37860;BME280;23698;52.014;5.190;2023-03-26T02:12:57;100409.50;;;9.17;100.00
37860;BME280;23698;52.014;5.190;2023-03-26T02:15:53;100405.16;;;8.79;100.00
37860;BME280;23698;52.014;5.190;2023-03-26T02:18:43;100395.59;;;8.98;100.00
37860;BME280;23698;52.014;5.190;2023-03-26T02:21:29;100389.03;;;8.86;100.00
37860;BME280;23698;52.014;5.190;2023-03-26T02:24:18;100390.31;;;8.90;100.00
37860;BME280;23698;52.014;5.190;2023-03-26T02:27:08;100381.22;;;8.76;100.00
37860;BME280;23698;52.014;5.190;2023-03-26T02:29:57;100390.31;;;8.90;100.00
37860;BME280;23698;52.014;5.190;2023-03-26T02:32:43;100377.94;;;8.81;100.00
37860;BME280;23698;52.014;5.190;2023-03-26T02:35:31;100370.47;;;8.83;100.00
37860;BME280;23698;52.014;5.190;2023-03-26T02:38:20;100362.91;;;8.93;100.00
37860;BME280;23698;52.014;5.190;2023-03-26T02:41:09;100362.81;;;8.86;100.00
37860;BME280;23698;52.014;5.190;2023-03-26T02:44:13;100363.91;;;8.92;100.00
37860;BME280;23698;52.014;5.190;2023-03-26T02:47:14;100354.13;;;8.91;100.00
37860;BME280;23698;52.014;5.190;2023-03-26T02:50:10;100357.22;;;8.88;100.00
37860;BME280;23698;52.014;5.190;2023-03-26T02:53:16;100358.84;;;9.04;100.00
37860;BME280;23698;52.014;5.190;2023-03-26T02:56:08;100348.66;;;9.06;100.00
37860;BME280;23698;52.014;5.190;2023-03-26T02:59:02;100343.81;;;9.01;100.00
37860;BME280;23698;52.014;5.190;2023-03-26T03:01:48;100339.31;;;9.08;100.00
37860;BME280;23698;52.014;5.190;2023-03-26T03:04:36;100335.78;;;9.36;100.00
37860;BME280;23698;52.014;5.190;2023-03-26T03:07:22;100331.44;;;9.14;100.00
37860;BME280;23698;52.014;5.190;2023-03-26T03:10:11;100322.25;;;9.36;100.00
37860;BME280;23698;52.014;5.190;2023-03-26T03:13:16;100327.88;;;9.35;100.00
37860;BME280;23698;52.014;5.190;2023-03-26T03:16:03;100324.69;;;9.03;100.00
37860;BME280;23698;52.014;5.190;2023-03-26T03:18:51;100327.75;;;8.93;100.00
37860;BME280;23698;52.014;5.190;2023-03-26T03:21:44;100324.38;;;8.91;100.00
37860;BME280;23698;52.014;5.190;2023-03-26T03:24:30;100317.88;;;8.85;100.00
37860;BME280;23698;52.014;5.190;2023-03-26T03:27:19;100323.44;;;8.99;100.00
37860;BME280;23698;52.014;5.190;2023-03-26T03:30:15;100317.44;;;9.03;100.00
37860;BME280;23698;52.014;5.190;2023-03-26T03:33:04;100317.56;;;8.95;100.00
37860;BME280;23698;52.014;5.190;2023-03-26T03:35:51;100313.66;;;9.26;100.00
37860;BME280;23698;52.014;5.190;2023-03-26T03:38:39;100298.38;;;9.12;100.00
37860;BME280;23698;52.014;5.190;2023-03-26T03:41:28;100299.00;;;9.14;100.00
37860;BME280;23698;52.014;5.190;2023-03-26T03:44:18;100293.81;;;9.40;100.00
37860;BME280;23698;52.014;5.190;2023-03-26T03:47:05;100291.81;;;9.27;100.00
37860;BME280;23698;52.014;5.190;2023-03-26T03:49:51;100289.41;;;9.39;100.00
37860;BME280;23698;52.014;5.190;2023-03-26T03:52:38;100280.75;;;9.22;100.00
37860;BME280;23698;52.014;5.190;2023-03-26T03:55:25;100278.97;;;9.30;100.00
37860;BME280;23698;52.014;5.190;2023-03-26T03:58:12;100274.69;;;9.42;100.00
37860;BME280;23698;52.014;5.190;2023-03-26T04:01:00;100268.47;;;9.48;100.00
37860;BME280;23698;52.014;5.190;2023-03-26T04:04:04;100263.09;;;9.55;100.00
37860;BME280;23698;52.014;5.190;2023-03-26T04:07:13;100271.16;;;9.48;100.00
37860;BME280;23698;52.014;5.190;2023-03-26T04:10:22;100263.56;;;9.30;100.00
37860;BME280;23698;52.014;5.190;2023-03-26T04:13:28;100259.41;;;9.34;100.00
37860;BME280;23698;52.014;5.190;2023-03-26T04:16:33;100255.41;;;9.58;100.00
37860;BME280;23698;52.014;5.190;2023-03-26T04:19:20;100246.81;;;9.48;100.00
37860;BME280;23698;52.014;5.190;2023-03-26T04:22:06;100248.94;;;9.53;100.00
37860;BME280;23698;52.014;5.190;2023-03-26T04:25:00;100233.63;;;9.32;100.00
37860;BME280;23698;52.014;5.190;2023-03-26T04:28:07;100223.63;;;9.32;100.00
37860;BME280;23698;52.014;5.190;2023-03-26T04:31:26;100222.19;;;9.36;100.00
37860;BME280;23698;52.014;5.190;2023-03-26T04:34:21;100214.78;;;9.17;100.00
37860;BME280;23698;52.014;5.190;2023-03-26T04:37:23;100214.50;;;9.40;100.00
37860;BME280;23698;52.014;5.190;2023-03-26T04:40:34;100206.72;;;9.23;100.00
37860;BME280;23698;52.014;5.190;2023-03-26T04:43:39;100204.09;;;9.02;100.00
37860;BME280;23698;52.014;5.190;2023-03-26T04:46:52;100198.81;;;8.94;100.00
37860;BME280;23698;52.014;5.190;2023-03-26T04:49:52;100191.84;;;9.06;100.00
37860;BME280;23698;52.014;5.190;2023-03-26T04:52:39;100179.84;;;8.87;100.00
37860;BME280;23698;52.014;5.190;2023-03-26T04:55:50;100188.00;;;8.94;100.00
37860;BME280;23698;52.014;5.190;2023-03-26T04:58:59;100185.00;;;8.82;100.00
37860;BME280;23698;52.014;5.190;2023-03-26T05:01:49;100178.03;;;8.66;100.00
37860;BME280;23698;52.014;5.190;2023-03-26T05:04:38;100179.75;;;8.74;100.00
37860;BME280;23698;52.014;5.190;2023-03-26T05:07:27;100174.19;;;8.82;100.00
37860;BME280;23698;52.014;5.190;2023-03-26T05:10:15;100173.56;;;8.80;100.00
37860;BME280;23698;52.014;5.190;2023-03-26T05:13:15;100168.66;;;8.62;100.00
37860;BME280;23698;52.014;5.190;2023-03-26T05:16:07;100170.31;;;8.41;100.00
37860;BME280;23698;52.014;5.190;2023-03-26T05:18:57;100159.50;;;8.41;100.00
37860;BME280;23698;52.014;5.190;2023-03-26T05:21:49;100159.69;;;8.61;100.00
37860;BME280;23698;52.014;5.190;2023-03-26T05:24:37;100161.00;;;8.44;100.00
37860;BME280;23698;52.014;5.190;2023-03-26T05:27:24;100154.81;;;8.50;100.00
37860;BME280;23698;52.014;5.190;2023-03-26T05:30:12;100150.31;;;8.36;100.00
37860;BME280;23698;52.014;5.190;2023-03-26T05:33:03;100146.19;;;8.40;100.00
37860;BME280;23698;52.014;5.190;2023-03-26T05:35:59;100145.28;;;8.54;100.00
37860;BME280;23698;52.014;5.190;2023-03-26T05:38:48;100139.19;;;8.45;100.00
37860;BME280;23698;52.014;5.190;2023-03-26T05:41:58;100127.28;;;7.97;100.00
37860;BME280;23698;52.014;5.190;2023-03-26T05:44:54;100131.03;;;7.96;100.00
37860;BME280;23698;52.014;5.190;2023-03-26T05:47:44;100140.84;;;8.03;100.00
37860;BME280;23698;52.014;5.190;2023-03-26T05:50:34;100128.84;;;8.06;100.00
37860;BME280;23698;52.014;5.190;2023-03-26T05:53:22;100139.22;;;8.02;100.00
37860;BME280;23698;52.014;5.190;2023-03-26T05:56:27;100137.72;;;8.00;100.00
37860;BME280;23698;52.014;5.190;2023-03-26T05:59:47;100137.75;;;8.28;100.00
37860;BME280;23698;52.014;5.190;2023-03-26T06:02:52;100137.03;;;8.12;100.00
37860;BME280;23698;52.014;5.190;2023-03-26T06:05:44;100135.41;;;8.18;100.00
37860;BME280;23698;52.014;5.190;2023-03-26T06:08:37;100132.34;;;8.21;100.00
37860;BME280;23698;52.014;5.190;2023-03-26T06:11:23;100123.56;;;8.19;100.00
37860;BME280;23698;52.014;5.190;2023-03-26T06:14:09;100121.97;;;8.03;100.00
37860;BME280;23698;52.014;5.190;2023-03-26T06:17:03;100125.63;;;7.96;100.00
37860;BME280;23698;52.014;5.190;2023-03-26T06:20:10;100124.28;;;7.85;100.00
37860;BME280;23698;52.014;5.190;2023-03-26T06:23:00;100121.78;;;8.05;100.00
37860;BME280;23698;52.014;5.190;2023-03-26T06:26:15;100121.25;;;7.94;100.00
37860;BME280;23698;52.014;5.190;2023-03-26T06:29:13;100120.06;;;7.97;100.00
37860;BME280;23698;52.014;5.190;2023-03-26T06:32:11;100117.16;;;7.99;100.00
37860;BME280;23698;52.014;5.190;2023-03-26T06:35:09;100116.31;;;8.20;100.00
37860;BME280;23698;52.014;5.190;2023-03-26T06:37:55;100118.22;;;8.26;100.00
37860;BME280;23698;52.014;5.190;2023-03-26T06:40:42;100112.59;;;8.42;100.00
37860;BME280;23698;52.014;5.190;2023-03-26T06:43:48;100117.47;;;8.32;100.00
37860;BME280;23698;52.014;5.190;2023-03-26T06:46:54;100107.97;;;8.15;100.00
37860;BME280;23698;52.014;5.190;2023-03-26T06:50:05;100112.13;;;8.39;100.00
37860;BME280;23698;52.014;5.190;2023-03-26T06:52:57;100105.03;;;8.38;100.00
37860;BME280;23698;52.014;5.190;2023-03-26T06:55:59;100109.25;;;8.19;100.00
37860;BME280;23698;52.014;5.190;2023-03-26T06:59:04;100100.47;;;8.38;100.00
37860;BME280;23698;52.014;5.190;2023-03-26T07:02:10;100109.72;;;8.50;100.00
37860;BME280;23698;52.014;5.190;2023-03-26T07:05:20;100107.56;;;8.18;100.00
37860;BME280;23698;52.014;5.190;2023-03-26T07:08:36;100106.97;;;8.22;100.00
37860;BME280;23698;52.014;5.190;2023-03-26T07:11:52;100105.09;;;8.23;100.00
37860;BME280;23698;52.014;5.190;2023-03-26T07:14:44;100109.00;;;8.42;100.00
37860;BME280;23698;52.014;5.190;2023-03-26T07:17:43;100109.53;;;8.52;100.00
37860;BME280;23698;52.014;5.190;2023-03-26T07:20:43;100097.31;;;8.56;100.00
37860;BME280;23698;52.014;5.190;2023-03-26T07:23:29;100094.69;;;8.69;100.00
37860;BME280;23698;52.014;5.190;2023-03-26T07:26:44;100096.22;;;8.50;100.00
37860;BME280;23698;52.014;5.190;2023-03-26T07:29:43;100086.72;;;8.61;100.00
37860;BME280;23698;52.014;5.190;2023-03-26T07:32:54;100085.59;;;8.49;100.00
37860;BME280;23698;52.014;5.190;2023-03-26T07:36:16;100088.41;;;8.97;100.00
37860;BME280;23698;52.014;5.190;2023-03-26T07:39:38;100074.19;;;8.82;100.00
37860;BME280;23698;52.014;5.190;2023-03-26T07:42:51;100070.38;;;8.69;100.00
37860;BME280;23698;52.014;5.190;2023-03-26T07:46:02;100073.50;;;8.73;100.00
37860;BME280;23698;52.014;5.190;2023-03-26T07:49:03;100070.41;;;8.76;100.00
37860;BME280;23698;52.014;5.190;2023-03-26T07:52:11;100060.69;;;8.82;100.00
37860;BME280;23698;52.014;5.190;2023-03-26T07:55:20;100054.28;;;8.90;100.00
37860;BME280;23698;52.014;5.190;2023-03-26T07:58:37;100058.66;;;8.91;100.00
37860;BME280;23698;52.014;5.190;2023-03-26T08:01:58;100052.03;;;8.93;100.00
37860;BME280;23698;52.014;5.190;2023-03-26T08:05:05;100053.13;;;9.05;100.00
37860;BME280;23698;52.014;5.190;2023-03-26T08:08:28;100053.13;;;9.05;100.00
37860;BME280;23698;52.014;5.190;2023-03-26T08:11:42;100061.69;;;9.16;100.00
37860;BME280;23698;52.014;5.190;2023-03-26T08:14:43;100050.63;;;9.04;100.00
37860;BME280;23698;52.014;5.190;2023-03-26T08:17:35;100046.78;;;9.33;100.00
37860;BME280;23698;52.014;5.190;2023-03-26T08:20:31;100046.53;;;9.21;100.00
37860;BME280;23698;52.014;5.190;2023-03-26T08:23:26;100050.56;;;9.45;100.00
37860;BME280;23698;52.014;5.190;2023-03-26T08:26:25;100056.47;;;9.14;100.00
37860;BME280;23698;52.014;5.190;2023-03-26T08:29:19;100056.16;;;9.37;100.00
37860;BME280;23698;52.014;5.190;2023-03-26T08:32:13;100047.41;;;9.49;100.00
37860;BME280;23698;52.014;5.190;2023-03-26T08:35:01;100054.84;;;9.20;100.00
37860;BME280;23698;52.014;5.190;2023-03-26T08:37:49;100047.94;;;9.17;100.00
37860;BME280;23698;52.014;5.190;2023-03-26T08:44:34;100046.41;;;8.95;100.00
37860;BME280;23698;52.014;5.190;2023-03-26T08:48:02;100050.00;;;9.08;100.00
37860;BME280;23698;52.014;5.190;2023-03-26T08:51:14;100055.19;;;9.03;100.00
37860;BME280;23698;52.014;5.190;2023-03-26T08:54:23;100047.13;;;8.75;100.00
37860;BME280;23698;52.014;5.190;2023-03-26T08:57:39;100052.03;;;9.00;100.00
37860;BME280;23698;52.014;5.190;2023-03-26T09:00:39;100050.50;;;8.84;100.00
37860;BME280;23698;52.014;5.190;2023-03-26T09:03:40;100059.75;;;8.68;100.00
37860;BME280;23698;52.014;5.190;2023-03-26T09:07:00;100061.22;;;8.64;100.00
37860;BME280;23698;52.014;5.190;2023-03-26T09:10:23;100062.84;;;8.58;100.00
37860;BME280;23698;52.014;5.190;2023-03-26T09:17:17;100072.22;;;8.62;100.00
37860;BME280;23698;52.014;5.190;2023-03-26T09:24:40;100065.72;;;8.57;100.00
37860;BME280;23698;52.014;5.190;2023-03-26T09:27:37;100068.41;;;8.85;100.00
37860;BME280;23698;52.014;5.190;2023-03-26T09:30:50;100067.16;;;8.87;100.00
37860;BME280;23698;52.014;5.190;2023-03-26T09:33:55;100067.47;;;8.71;100.00
37860;BME280;23698;52.014;5.190;2023-03-26T09:36:53;100069.78;;;8.74;100.00
37860;BME280;23698;52.014;5.190;2023-03-26T09:39:50;100070.75;;;8.95;100.00
37860;BME280;23698;52.014;5.190;2023-03-26T09:42:43;100068.25;;;8.93;100.00
37860;BME280;23698;52.014;5.190;2023-03-26T09:45:42;100077.13;;;8.87;100.00
37860;BME280;23698;52.014;5.190;2023-03-26T09:52:16;100072.53;;;8.81;100.00
37860;BME280;23698;52.014;5.190;2023-03-26T09:55:31;100076.66;;;8.77;100.00
37860;BME280;23698;52.014;5.190;2023-03-26T09:58:37;100084.19;;;8.81;100.00
37860;BME280;23698;52.014;5.190;2023-03-26T10:01:33;100091.75;;;8.99;100.00
37860;BME280;23698;52.014;5.190;2023-03-26T10:04:39;100097.56;;;8.96;100.00
37860;BME280;23698;52.014;5.190;2023-03-26T10:08:07;100101.34;;;9.08;100.00
37860;BME280;23698;52.014;5.190;2023-03-26T10:11:02;100091.22;;;9.17;100.00
37860;BME280;23698;52.014;5.190;2023-03-26T10:13:59;100099.34;;;9.24;100.00
37860;BME280;23698;52.014;5.190;2023-03-26T10:16:57;100101.00;;;9.18;100.00
37860;BME280;23698;52.014;5.190;2023-03-26T10:19:52;100104.13;;;9.22;100.00
37860;BME280;23698;52.014;5.190;2023-03-26T10:22:50;100098.94;;;9.20;100.00
37860;BME280;23698;52.014;5.190;2023-03-26T10:25:52;100104.31;;;9.14;100.00
37860;BME280;23698;52.014;5.190;2023-03-26T10:32:01;100108.56;;;9.36;100.00
37860;BME280;23698;52.014;5.190;2023-03-26T10:35:04;100117.81;;;9.14;100.00
37860;BME280;23698;52.014;5.190;2023-03-26T10:37:56;100114.28;;;9.13;100.00
37860;BME280;23698;52.014;5.190;2023-03-26T10:40:56;100124.38;;;8.98;100.00
37860;BME280;23698;52.014;5.190;2023-03-26T10:43:55;100123.66;;;9.11;100.00
37860;BME280;23698;52.014;5.190;2023-03-26T10:47:13;100118.75;;;9.34;100.00
37860;BME280;23698;52.014;5.190;2023-03-26T10:50:17;100118.22;;;9.59;100.00
37860;BME280;23698;52.014;5.190;2023-03-26T10:53:11;100119.31;;;9.71;100.00
37860;BME280;23698;52.014;5.190;2023-03-26T10:56:13;100130.66;;;9.47;100.00
37860;BME280;23698;52.014;5.190;2023-03-26T10:59:05;100121.72;;;9.46;100.00
37860;BME280;23698;52.014;5.190;2023-03-26T11:02:01;100120.84;;;9.32;100.00
37860;BME280;23698;52.014;5.190;2023-03-26T11:04:55;100120.91;;;9.04;100.00
37860;BME280;23698;52.014;5.190;2023-03-26T11:07:48;100130.91;;;9.10;100.00
37860;BME280;23698;52.014;5.190;2023-03-26T11:10:47;100131.41;;;9.27;100.00
37860;BME280;23698;52.014;5.190;2023-03-26T11:13:49;100130.25;;;9.43;100.00
37860;BME280;23698;52.014;5.190;2023-03-26T11:16:48;100127.63;;;9.15;100.00
37860;BME280;23698;52.014;5.190;2023-03-26T11:19:43;100136.34;;;9.17;100.00
37860;BME280;23698;52.014;5.190;2023-03-26T11:22:44;100142.44;;;8.91;100.00
37860;BME280;23698;52.014;5.190;2023-03-26T11:25:45;100130.31;;;8.52;100.00
37860;BME280;23698;52.014;5.190;2023-03-26T11:29:04;100136.09;;;8.48;100.00
37860;BME280;23698;52.014;5.190;2023-03-26T11:32:15;100147.72;;;8.42;100.00
37860;BME280;23698;52.014;5.190;2023-03-26T11:35:06;100141.13;;;8.30;100.00
37860;BME280;23698;52.014;5.190;2023-03-26T11:38:03;100146.66;;;8.22;100.00
37860;BME280;23698;52.014;5.190;2023-03-26T11:40:52;100151.16;;;8.15;100.00
37860;BME280;23698;52.014;5.190;2023-03-26T11:44:18;100159.06;;;8.16;100.00
37860;BME280;23698;52.014;5.190;2023-03-26T11:47:08;100160.78;;;8.24;100.00
37860;BME280;23698;52.014;5.190;2023-03-26T11:49:59;100160.53;;;8.19;100.00
37860;BME280;23698;52.014;5.190;2023-03-26T11:52:47;100155.69;;;8.14;100.00
37860;BME280;23698;52.014;5.190;2023-03-26T11:55:33;100167.66;;;8.26;100.00
37860;BME280;23698;52.014;5.190;2023-03-26T11:58:26;100168.97;;;8.30;100.00
37860;BME280;23698;52.014;5.190;2023-03-26T12:01:24;100169.72;;;8.24;100.00
37860;BME280;23698;52.014;5.190;2023-03-26T12:04:16;100163.81;;;8.14;100.00
37860;BME280;23698;52.014;5.190;2023-03-26T12:07:06;100172.34;;;8.18;100.00
37860;BME280;23698;52.014;5.190;2023-03-26T12:09:57;100173.06;;;8.05;100.00
37860;BME280;23698;52.014;5.190;2023-03-26T12:13:22;100172.66;;;8.44;100.00
37860;BME280;23698;52.014;5.190;2023-03-26T12:16:13;100167.75;;;8.11;100.00
37860;BME280;23698;52.014;5.190;2023-03-26T12:19:04;100175.88;;;7.97;100.00
37860;BME280;23698;52.014;5.190;2023-03-26T12:21:52;100176.59;;;8.05;100.00
37860;BME280;23698;52.014;5.190;2023-03-26T12:24:38;100177.81;;;8.03;100.00
37860;BME280;23698;52.014;5.190;2023-03-26T12:27:25;100181.63;;;8.08;100.00
37860;BME280;23698;52.014;5.190;2023-03-26T12:30:20;100186.56;;;8.05;100.00
37860;BME280;23698;52.014;5.190;2023-03-26T12:33:14;100184.19;;;7.95;100.00
37860;BME280;23698;52.014;5.190;2023-03-26T12:36:19;100192.66;;;7.92;100.00
37860;BME280;23698;52.014;5.190;2023-03-26T12:39:32;100187.72;;;7.96;100.00
37860;BME280;23698;52.014;5.190;2023-03-26T12:42:39;100199.94;;;8.13;100.00
37860;BME280;23698;52.014;5.190;2023-03-26T12:45:49;100203.25;;;8.30;100.00
37860;BME280;23698;52.014;5.190;2023-03-26T12:49:01;100196.78;;;8.31;100.00
37860;BME280;23698;52.014;5.190;2023-03-26T12:51:53;100194.72;;;8.11;100.00
37860;BME280;23698;52.014;5.190;2023-03-26T12:54:46;100199.94;;;8.13;100.00
37860;BME280;23698;52.014;5.190;2023-03-26T12:57:39;100205.94;;;8.30;100.00
37860;BME280;23698;52.014;5.190;2023-03-26T13:00:45;100202.84;;;8.33;100.00
37860;BME280;23698;52.014;5.190;2023-03-26T13:03:39;100201.56;;;8.50;100.00
37860;BME280;23698;52.014;5.190;2023-03-26T13:06:35;100199.72;;;8.51;100.00
37860;BME280;23698;52.014;5.190;2023-03-26T13:10:14;100205.06;;;8.94;100.00
37860;BME280;23698;52.014;5.190;2023-03-26T13:16:25;100205.13;;;9.36;100.00
37860;BME280;23698;52.014;5.190;2023-03-26T13:19:17;100208.38;;;9.59;100.00
37860;BME280;23698;52.014;5.190;2023-03-26T13:22:16;100206.78;;;9.78;100.00
37860;BME280;23698;52.014;5.190;2023-03-26T13:25:16;100208.63;;;9.71;100.00
37860;BME280;23698;52.014;5.190;2023-03-26T13:28:15;100212.94;;;9.59;100.00
37860;BME280;23698;52.014;5.190;2023-03-26T13:31:09;100213.34;;;9.56;100.00
37860;BME280;23698;52.014;5.190;2023-03-26T13:34:08;100215.50;;;9.74;100.00
37860;BME280;23698;52.014;5.190;2023-03-26T13:37:07;100216.78;;;9.36;100.00
37860;BME280;23698;52.014;5.190;2023-03-26T13:40:07;100221.72;;;9.68;100.00
37860;BME280;23698;52.014;5.190;2023-03-26T13:43:08;100215.66;;;9.24;100.00
37860;BME280;23698;52.014;5.190;2023-03-26T13:46:06;100229.94;;;9.11;100.00
37860;BME280;23698;52.014;5.190;2023-03-26T13:48:58;100241.94;;;9.02;100.00
37860;BME280;23698;52.014;5.190;2023-03-26T13:51:48;100245.78;;;8.93;100.00
37860;BME280;23698;52.014;5.190;2023-03-26T13:54:42;100252.16;;;9.06;100.00
37860;BME280;23698;52.014;5.190;2023-03-26T13:57:34;100252.94;;;9.00;100.00
37860;BME280;23698;52.014;5.190;2023-03-26T14:00:27;100259.09;;;9.16;100.00
37860;BME280;23698;52.014;5.190;2023-03-26T14:03:22;100263.56;;;9.02;100.00
37860;BME280;23698;52.014;5.190;2023-03-26T14:06:29;100259.31;;;9.49;100.00
37860;BME280;23698;52.014;5.190;2023-03-26T14:09:24;100266.22;;;9.58;100.00
37860;BME280;23698;52.014;5.190;2023-03-26T14:12:25;100268.19;;;9.78;100.00
37860;BME280;23698;52.014;5.190;2023-03-26T14:15:17;100275.31;;;9.44;100.00
37860;BME280;23698;52.014;5.190;2023-03-26T14:18:19;100278.66;;;9.46;100.00
37860;BME280;23698;52.014;5.190;2023-03-26T14:21:24;100291.59;;;9.57;100.00
37860;BME280;23698;52.014;5.190;2023-03-26T14:24:26;100285.59;;;9.27;100.00
37860;BME280;23698;52.014;5.190;2023-03-26T14:27:37;100287.03;;;9.23;100.00
37860;BME280;23698;52.014;5.190;2023-03-26T14:30:52;100296.41;;;8.77;100.00
37860;BME280;23698;52.014;5.190;2023-03-26T14:34:00;100313.72;;;8.83;100.00
37860;BME280;23698;52.014;5.190;2023-03-26T14:40:28;100319.13;;;8.83;100.00
37860;BME280;23698;52.014;5.190;2023-03-26T14:43:32;100337.00;;;9.05;100.00
37860;BME280;23698;52.014;5.190;2023-03-26T14:46:35;100333.09;;;8.86;100.00
37860;BME280;23698;52.014;5.190;2023-03-26T14:49:49;100343.44;;;9.04;100.00
37860;BME280;23698;52.014;5.190;2023-03-26T14:52:46;100345.63;;;8.94;100.00
37860;BME280;23698;52.014;5.190;2023-03-26T14:56:02;100358.44;;;8.64;100.00
37860;BME280;23698;52.014;5.190;2023-03-26T15:03:14;100370.84;;;8.80;100.00
37860;BME280;23698;52.014;5.190;2023-03-26T15:06:42;100377.63;;;8.91;100.00
37860;BME280;23698;52.014;5.190;2023-03-26T15:10:06;100398.06;;;9.00;100.00
37860;BME280;23698;52.014;5.190;2023-03-26T15:16:38;100401.06;;;9.26;100.00
37860;BME280;23698;52.014;5.190;2023-03-26T15:19:46;100408.41;;;9.11;100.00
37860;BME280;23698;52.014;5.190;2023-03-26T15:29:29;100431.53;;;8.77;100.00
37860;BME280;23698;52.014;5.190;2023-03-26T15:32:54;100432.16;;;9.16;100.00
37860;BME280;23698;52.014;5.190;2023-03-26T15:39:34;100455.16;;;8.54;100.00
37860;BME280;23698;52.014;5.190;2023-03-26T15:42:52;100457.16;;;8.81;100.00
37860;BME280;23698;52.014;5.190;2023-03-26T15:45:42;100467.47;;;8.56;100.00
37860;BME280;23698;52.014;5.190;2023-03-26T15:51:50;100482.97;;;8.39;100.00
37860;BME280;23698;52.014;5.190;2023-03-26T15:54:49;100504.25;;;8.57;100.00
37860;BME280;23698;52.014;5.190;2023-03-26T15:57:41;100515.13;;;8.34;100.00
37860;BME280;23698;52.014;5.190;2023-03-26T16:00:33;100517.06;;;8.40;100.00
37860;BME280;23698;52.014;5.190;2023-03-26T16:03:27;100523.81;;;8.44;100.00
37860;BME280;23698;52.014;5.190;2023-03-26T16:06:28;100544.44;;;8.22;100.00
37860;BME280;23698;52.014;5.190;2023-03-26T16:09:26;100561.28;;;8.24;100.00
37860;BME280;23698;52.014;5.190;2023-03-26T16:12:30;100564.28;;;8.29;100.00
37860;BME280;23698;52.014;5.190;2023-03-26T16:15:26;100555.03;;;8.24;100.00
37860;BME280;23698;52.014;5.190;2023-03-26T16:18:29;100576.91;;;8.14;100.00